KNQX/NQX METAR and TAF weather

Enter ICAO airport designator
Station Type Date Time Source
KNQX METAR 2020/09/20 01:53 UTC NOAA

KNQX 200153Z 35005KT 10SM FEW025 SCT250 31/25 A2992 RMK AO2 SLP131 T03110250


Station Type Date Time Source
KNQX Decoded METAR 2020/09/20 01:53 UTC NOAA

KEY WEST NAVAL AIR STATION, FL, United States (KNQX) 24-35N 81-41W 6M
Sep 19, 2020 - 09:53 PM EDT / 2020.09.20 0153 UTC
Wind: from the N (350 degrees) at 6 MPH (5 KT):0
Visibility: 10 mile(s):0
Sky conditions: partly cloudy
Temperature: 88.0 F (31.1 C)
Heat index: 100.2 F (37.9 C):1
Dew Point: 77.0 F (25.0 C)
Relative Humidity: 70%
Pressure (altimeter): 29.92 in. Hg (1013 hPa)
ob: KNQX 200153Z 35005KT 10SM FEW025 SCT250 31/25 A2992 RMK AO2 SLP131 T03110250
cycle: 2

Station Type Date Time Source
KNQX TAF 2020/09/19 23:12 UTC NOAA

TAF TAF KNQX 1923/2023 35005KT 9999 SCT030 SCT250 QNH2983INS
TEMPO 2009/2015 BKN030 BKN250
BECMG 2017/2018 30006KT 9999 SCT030 SCT250 QNH2985INS AUTOMATED SENSOR METWATCH 2002 TIL 2010 T27/2010Z T33/2018Z FN00197

Example: see airport list